sensor_id;sensor_type;location;lat;lon;timestamp;P1;durP1;ratioP1;P2;durP2;ratioP2
59008;SDS011;44794;42.652;23.318;2023-05-10T00:01:03;20.63;;;12.48;;
59008;SDS011;44794;42.652;23.318;2023-05-10T00:03:28;20.58;;;12.77;;
59008;SDS011;44794;42.652;23.318;2023-05-10T00:05:54;20.05;;;12.80;;
59008;SDS011;44794;42.652;23.318;2023-05-10T00:08:19;22.15;;;12.93;;
59008;SDS011;44794;42.652;23.318;2023-05-10T00:10:45;21.90;;;13.30;;
59008;SDS011;44794;42.652;23.318;2023-05-10T00:13:10;22.65;;;13.77;;
59008;SDS011;44794;42.652;23.318;2023-05-10T00:15:35;21.25;;;13.13;;
59008;SDS011;44794;42.652;23.318;2023-05-10T00:18:01;21.13;;;14.00;;
59008;SDS011;44794;42.652;23.318;2023-05-10T00:20:26;22.45;;;13.25;;
59008;SDS011;44794;42.652;23.318;2023-05-10T00:22:52;19.80;;;13.48;;
59008;SDS011;44794;42.652;23.318;2023-05-10T00:25:17;20.55;;;14.20;;
59008;SDS011;44794;42.652;23.318;2023-05-10T00:27:43;22.48;;;13.80;;
59008;SDS011;44794;42.652;23.318;2023-05-10T00:30:08;20.95;;;13.38;;
59008;SDS011;44794;42.652;23.318;2023-05-10T00:32:34;21.30;;;13.60;;
59008;SDS011;44794;42.652;23.318;2023-05-10T00:34:59;20.48;;;12.98;;
59008;SDS011;44794;42.652;23.318;2023-05-10T00:37:25;24.40;;;14.32;;
59008;SDS011;44794;42.652;23.318;2023-05-10T00:39:50;21.27;;;14.32;;
59008;SDS011;44794;42.652;23.318;2023-05-10T00:42:15;21.48;;;13.98;;
59008;SDS011;44794;42.652;23.318;2023-05-10T00:44:41;22.98;;;15.52;;
59008;SDS011;44794;42.652;23.318;2023-05-10T00:47:06;22.35;;;14.57;;
59008;SDS011;44794;42.652;23.318;2023-05-10T00:49:32;23.90;;;14.88;;
59008;SDS011;44794;42.652;23.318;2023-05-10T00:51:58;22.85;;;15.43;;
59008;SDS011;44794;42.652;23.318;2023-05-10T00:54:23;22.95;;;14.93;;
59008;SDS011;44794;42.652;23.318;2023-05-10T00:56:49;19.33;;;13.70;;
59008;SDS011;44794;42.652;23.318;2023-05-10T00:59:15;21.17;;;14.55;;
59008;SDS011;44794;42.652;23.318;2023-05-10T01:01:42;22.60;;;15.45;;
59008;SDS011;44794;42.652;23.318;2023-05-10T01:04:09;19.70;;;13.55;;
59008;SDS011;44794;42.652;23.318;2023-05-10T01:06:37;22.60;;;14.98;;
59008;SDS011;44794;42.652;23.318;2023-05-10T01:09:03;23.17;;;14.73;;
59008;SDS011;44794;42.652;23.318;2023-05-10T01:11:28;22.95;;;14.88;;
59008;SDS011;44794;42.652;23.318;2023-05-10T01:13:57;20.33;;;13.75;;
59008;SDS011;44794;42.652;23.318;2023-05-10T01:16:23;22.27;;;14.18;;
59008;SDS011;44794;42.652;23.318;2023-05-10T01:18:50;23.05;;;15.75;;
59008;SDS011;44794;42.652;23.318;2023-05-10T01:38:41;18.67;;;11.88;;
59008;SDS011;44794;42.652;23.318;2023-05-10T01:47:10;12.98;;;9.85;;
59008;SDS011;44794;42.652;23.318;2023-05-10T01:49:45;13.23;;;10.45;;
59008;SDS011;44794;42.652;23.318;2023-05-10T01:52:15;14.57;;;10.40;;
59008;SDS011;44794;42.652;23.318;2023-05-10T01:54:50;12.25;;;9.68;;
59008;SDS011;44794;42.652;23.318;2023-05-10T01:57:20;13.00;;;9.85;;
59008;SDS011;44794;42.652;23.318;2023-05-10T01:59:50;15.20;;;10.90;;
59008;SDS011;44794;42.652;23.318;2023-05-10T02:02:16;17.17;;;11.68;;
59008;SDS011;44794;42.652;23.318;2023-05-10T02:04:43;14.98;;;11.70;;
59008;SDS011;44794;42.652;23.318;2023-05-10T02:07:11;13.40;;;10.05;;
59008;SDS011;44794;42.652;23.318;2023-05-10T02:09:37;13.07;;;10.02;;
59008;SDS011;44794;42.652;23.318;2023-05-10T02:12:03;14.70;;;9.32;;
59008;SDS011;44794;42.652;23.318;2023-05-10T02:14:32;11.88;;;9.27;;
59008;SDS011;44794;42.652;23.318;2023-05-10T02:17:00;13.20;;;9.93;;
59008;SDS011;44794;42.652;23.318;2023-05-10T02:19:27;14.68;;;10.35;;
59008;SDS011;44794;42.652;23.318;2023-05-10T02:21:54;16.95;;;10.48;;
59008;SDS011;44794;42.652;23.318;2023-05-10T02:24:20;13.00;;;8.73;;
59008;SDS011;44794;42.652;23.318;2023-05-10T02:26:49;11.38;;;8.38;;
59008;SDS011;44794;42.652;23.318;2023-05-10T02:29:18;11.93;;;8.30;;
59008;SDS011;44794;42.652;23.318;2023-05-10T02:31:45;10.52;;;7.65;;
59008;SDS011;44794;42.652;23.318;2023-05-10T02:34:11;14.32;;;7.50;;
59008;SDS011;44794;42.652;23.318;2023-05-10T02:36:38;10.80;;;7.40;;
59008;SDS011;44794;42.652;23.318;2023-05-10T02:39:05;12.00;;;7.18;;
59008;SDS011;44794;42.652;23.318;2023-05-10T02:41:35;13.88;;;7.72;;
59008;SDS011;44794;42.652;23.318;2023-05-10T02:44:02;12.32;;;8.60;;
59008;SDS011;44794;42.652;23.318;2023-05-10T02:46:30;11.18;;;8.30;;
59008;SDS011;44794;42.652;23.318;2023-05-10T02:48:56;14.23;;;8.73;;
59008;SDS011;44794;42.652;23.318;2023-05-10T02:51:22;12.85;;;8.38;;
59008;SDS011;44794;42.652;23.318;2023-05-10T02:53:50;13.55;;;8.90;;
59008;SDS011;44794;42.652;23.318;2023-05-10T02:56:25;14.75;;;9.13;;
59008;SDS011;44794;42.652;23.318;2023-05-10T02:58:56;16.05;;;9.77;;
59008;SDS011;44794;42.652;23.318;2023-05-10T03:01:22;13.80;;;9.77;;
59008;SDS011;44794;42.652;23.318;2023-05-10T03:03:47;14.52;;;9.70;;
59008;SDS011;44794;42.652;23.318;2023-05-10T03:06:13;15.63;;;10.07;;
59008;SDS011;44794;42.652;23.318;2023-05-10T03:08:38;13.95;;;8.93;;
59008;SDS011;44794;42.652;23.318;2023-05-10T03:11:21;15.48;;;10.38;;
59008;SDS011;44794;42.652;23.318;2023-05-10T03:13:56;15.27;;;10.65;;
59008;SDS011;44794;42.652;23.318;2023-05-10T03:16:29;15.32;;;10.23;;
59008;SDS011;44794;42.652;23.318;2023-05-10T03:19:08;14.85;;;9.65;;
59008;SDS011;44794;42.652;23.318;2023-05-10T03:21:41;13.65;;;9.40;;
59008;SDS011;44794;42.652;23.318;2023-05-10T03:24:12;12.93;;;8.73;;
59008;SDS011;44794;42.652;23.318;2023-05-10T03:26:40;15.85;;;10.05;;
59008;SDS011;44794;42.652;23.318;2023-05-10T03:29:09;14.43;;;10.00;;
59008;SDS011;44794;42.652;23.318;2023-05-10T03:31:36;15.25;;;9.65;;
59008;SDS011;44794;42.652;23.318;2023-05-10T03:34:03;14.13;;;9.77;;
59008;SDS011;44794;42.652;23.318;2023-05-10T03:36:29;13.93;;;9.50;;
59008;SDS011;44794;42.652;23.318;2023-05-10T03:38:54;13.55;;;10.18;;
59008;SDS011;44794;42.652;23.318;2023-05-10T03:41:20;16.02;;;10.15;;
59008;SDS011;44794;42.652;23.318;2023-05-10T03:43:45;13.27;;;8.68;;
59008;SDS011;44794;42.652;23.318;2023-05-10T03:46:11;13.30;;;8.68;;
59008;SDS011;44794;42.652;23.318;2023-05-10T03:48:36;12.68;;;9.10;;
59008;SDS011;44794;42.652;23.318;2023-05-10T03:51:02;13.60;;;8.55;;
59008;SDS011;44794;42.652;23.318;2023-05-10T03:53:28;11.80;;;7.50;;
59008;SDS011;44794;42.652;23.318;2023-05-10T03:55:53;11.70;;;8.20;;
59008;SDS011;44794;42.652;23.318;2023-05-10T03:58:19;11.20;;;7.50;;
59008;SDS011;44794;42.652;23.318;2023-05-10T04:00:44;11.57;;;7.32;;
59008;SDS011;44794;42.652;23.318;2023-05-10T04:03:13;8.82;;;6.07;;
59008;SDS011;44794;42.652;23.318;2023-05-10T04:05:39;9.70;;;7.32;;
59008;SDS011;44794;42.652;23.318;2023-05-10T04:08:05;10.48;;;7.13;;
59008;SDS011;44794;42.652;23.318;2023-05-10T04:10:30;11.48;;;7.57;;
59008;SDS011;44794;42.652;23.318;2023-05-10T04:12:56;12.68;;;7.03;;
59008;SDS011;44794;42.652;23.318;2023-05-10T04:15:22;13.93;;;8.23;;
59008;SDS011;44794;42.652;23.318;2023-05-10T04:17:48;10.55;;;7.82;;
59008;SDS011;44794;42.652;23.318;2023-05-10T04:20:13;13.43;;;7.70;;
59008;SDS011;44794;42.652;23.318;2023-05-10T04:22:39;11.27;;;6.38;;
59008;SDS011;44794;42.652;23.318;2023-05-10T04:25:05;14.02;;;8.20;;
59008;SDS011;44794;42.652;23.318;2023-05-10T04:27:31;9.90;;;6.63;;
59008;SDS011;44794;42.652;23.318;2023-05-10T04:29:56;11.32;;;7.55;;
59008;SDS011;44794;42.652;23.318;2023-05-10T04:32:22;9.18;;;7.18;;
59008;SDS011;44794;42.652;23.318;2023-05-10T04:34:48;13.48;;;8.38;;
59008;SDS011;44794;42.652;23.318;2023-05-10T04:37:14;9.85;;;7.10;;
59008;SDS011;44794;42.652;23.318;2023-05-10T04:39:39;11.45;;;7.63;;
59008;SDS011;44794;42.652;23.318;2023-05-10T04:42:05;12.35;;;7.93;;
59008;SDS011;44794;42.652;23.318;2023-05-10T04:44:31;12.40;;;8.02;;
59008;SDS011;44794;42.652;23.318;2023-05-10T04:46:56;10.73;;;8.07;;
59008;SDS011;44794;42.652;23.318;2023-05-10T04:49:22;12.52;;;7.20;;
59008;SDS011;44794;42.652;23.318;2023-05-10T04:51:47;10.20;;;7.32;;
59008;SDS011;44794;42.652;23.318;2023-05-10T04:54:13;12.15;;;7.55;;
59008;SDS011;44794;42.652;23.318;2023-05-10T04:56:38;10.40;;;7.68;;
59008;SDS011;44794;42.652;23.318;2023-05-10T04:59:04;12.25;;;8.55;;
59008;SDS011;44794;42.652;23.318;2023-05-10T05:01:29;11.02;;;8.10;;
59008;SDS011;44794;42.652;23.318;2023-05-10T05:03:54;12.63;;;7.38;;
59008;SDS011;44794;42.652;23.318;2023-05-10T05:06:20;9.30;;;6.80;;
59008;SDS011;44794;42.652;23.318;2023-05-10T05:08:50;12.73;;;7.80;;
59008;SDS011;44794;42.652;23.318;2023-05-10T05:11:16;10.00;;;7.88;;
59008;SDS011;44794;42.652;23.318;2023-05-10T05:13:42;11.25;;;8.18;;
59008;SDS011;44794;42.652;23.318;2023-05-10T05:16:07;13.27;;;8.20;;
59008;SDS011;44794;42.652;23.318;2023-05-10T05:18:33;11.73;;;8.32;;
59008;SDS011;44794;42.652;23.318;2023-05-10T05:20:59;16.73;;;10.98;;
59008;SDS011;44794;42.652;23.318;2023-05-10T05:23:24;15.07;;;9.45;;
59008;SDS011;44794;42.652;23.318;2023-05-10T05:25:53;12.25;;;8.73;;
59008;SDS011;44794;42.652;23.318;2023-05-10T05:28:19;12.93;;;8.80;;
59008;SDS011;44794;42.652;23.318;2023-05-10T05:30:45;15.27;;;9.00;;
59008;SDS011;44794;42.652;23.318;2023-05-10T05:33:11;15.50;;;9.98;;
59008;SDS011;44794;42.652;23.318;2023-05-10T05:35:36;15.50;;;9.75;;
59008;SDS011;44794;42.652;23.318;2023-05-10T05:38:02;18.23;;;10.10;;
59008;SDS011;44794;42.652;23.318;2023-05-10T05:40:27;14.38;;;10.13;;
59008;SDS011;44794;42.652;23.318;2023-05-10T05:42:53;15.05;;;10.30;;
59008;SDS011;44794;42.652;23.318;2023-05-10T05:45:18;14.40;;;9.90;;
59008;SDS011;44794;42.652;23.318;2023-05-10T05:47:44;14.02;;;9.52;;
59008;SDS011;44794;42.652;23.318;2023-05-10T05:50:09;15.07;;;10.32;;
59008;SDS011;44794;42.652;23.318;2023-05-10T05:52:35;17.73;;;10.77;;
59008;SDS011;44794;42.652;23.318;2023-05-10T05:55:01;18.35;;;11.93;;
59008;SDS011;44794;42.652;23.318;2023-05-10T05:57:26;14.88;;;11.10;;
59008;SDS011;44794;42.652;23.318;2023-05-10T05:59:52;17.20;;;11.27;;
59008;SDS011;44794;42.652;23.318;2023-05-10T06:02:17;17.85;;;11.43;;
59008;SDS011;44794;42.652;23.318;2023-05-10T06:04:43;17.75;;;10.68;;
59008;SDS011;44794;42.652;23.318;2023-05-10T06:07:08;21.40;;;13.60;;
59008;SDS011;44794;42.652;23.318;2023-05-10T06:09:33;19.13;;;12.43;;
59008;SDS011;44794;42.652;23.318;2023-05-10T06:11:59;19.98;;;12.07;;
59008;SDS011;44794;42.652;23.318;2023-05-10T06:14:24;18.88;;;11.55;;
59008;SDS011;44794;42.652;23.318;2023-05-10T06:16:50;21.20;;;12.98;;
59008;SDS011;44794;42.652;23.318;2023-05-10T06:19:15;23.20;;;13.50;;
59008;SDS011;44794;42.652;23.318;2023-05-10T06:21:40;20.80;;;12.43;;
59008;SDS011;44794;42.652;23.318;2023-05-10T06:24:06;20.77;;;13.27;;
59008;SDS011;44794;42.652;23.318;2023-05-10T06:26:32;20.20;;;12.25;;
59008;SDS011;44794;42.652;23.318;2023-05-10T06:28:57;17.88;;;11.73;;
59008;SDS011;44794;42.652;23.318;2023-05-10T06:31:23;21.92;;;12.70;;
59008;SDS011;44794;42.652;23.318;2023-05-10T06:33:48;22.48;;;12.45;;
59008;SDS011;44794;42.652;23.318;2023-05-10T06:36:14;21.02;;;12.30;;
59008;SDS011;44794;42.652;23.318;2023-05-10T06:38:39;17.70;;;11.90;;
59008;SDS011;44794;42.652;23.318;2023-05-10T06:41:05;17.98;;;11.38;;
59008;SDS011;44794;42.652;23.318;2023-05-10T06:43:30;21.15;;;12.07;;
59008;SDS011;44794;42.652;23.318;2023-05-10T06:45:56;20.30;;;11.88;;
59008;SDS011;44794;42.652;23.318;2023-05-10T06:48:22;18.63;;;12.00;;
59008;SDS011;44794;42.652;23.318;2023-05-10T06:50:47;15.85;;;10.90;;
59008;SDS011;44794;42.652;23.318;2023-05-10T06:53:13;14.65;;;9.60;;
59008;SDS011;44794;42.652;23.318;2023-05-10T06:55:39;16.27;;;11.35;;
59008;SDS011;44794;42.652;23.318;2023-05-10T06:58:04;17.42;;;10.98;;
59008;SDS011;44794;42.652;23.318;2023-05-10T07:00:30;18.10;;;11.30;;
59008;SDS011;44794;42.652;23.318;2023-05-10T07:02:55;22.98;;;13.57;;
59008;SDS011;44794;42.652;23.318;2023-05-10T07:05:21;19.75;;;11.93;;
59008;SDS011;44794;42.652;23.318;2023-05-10T07:07:46;16.58;;;11.10;;
59008;SDS011;44794;42.652;23.318;2023-05-10T07:10:12;19.23;;;11.50;;
59008;SDS011;44794;42.652;23.318;2023-05-10T07:12:38;16.02;;;11.25;;
59008;SDS011;44794;42.652;23.318;2023-05-10T07:15:04;19.45;;;12.57;;
59008;SDS011;44794;42.652;23.318;2023-05-10T07:17:30;16.88;;;11.13;;
59008;SDS011;44794;42.652;23.318;2023-05-10T07:19:55;20.58;;;11.32;;
59008;SDS011;44794;42.652;23.318;2023-05-10T07:22:21;15.05;;;10.35;;
59008;SDS011;44794;42.652;23.318;2023-05-10T07:24:47;22.38;;;11.85;;
59008;SDS011;44794;42.652;23.318;2023-05-10T07:27:12;18.77;;;11.40;;
59008;SDS011;44794;42.652;23.318;2023-05-10T07:29:38;19.42;;;11.43;;
59008;SDS011;44794;42.652;23.318;2023-05-10T07:32:04;32.15;;;12.48;;
59008;SDS011;44794;42.652;23.318;2023-05-10T07:34:30;24.65;;;11.82;;
59008;SDS011;44794;42.652;23.318;2023-05-10T07:36:59;19.45;;;12.30;;
59008;SDS011;44794;42.652;23.318;2023-05-10T07:39:25;22.50;;;13.50;;
59008;SDS011;44794;42.652;23.318;2023-05-10T07:41:54;22.17;;;13.23;;
59008;SDS011;44794;42.652;23.318;2023-05-10T07:44:20;23.05;;;12.63;;
59008;SDS011;44794;42.652;23.318;2023-05-10T07:46:46;17.85;;;12.85;;
59008;SDS011;44794;42.652;23.318;2023-05-10T07:49:12;22.02;;;12.30;;
59008;SDS011;44794;42.652;23.318;2023-05-10T07:51:38;17.08;;;11.55;;
59008;SDS011;44794;42.652;23.318;2023-05-10T07:54:03;20.75;;;12.93;;
59008;SDS011;44794;42.652;23.318;2023-05-10T07:56:29;19.17;;;12.23;;
59008;SDS011;44794;42.652;23.318;2023-05-10T07:58:56;19.27;;;13.85;;
59008;SDS011;44794;42.652;23.318;2023-05-10T08:01:23;22.00;;;12.73;;
59008;SDS011;44794;42.652;23.318;2023-05-10T08:03:48;18.75;;;11.90;;
59008;SDS011;44794;42.652;23.318;2023-05-10T08:06:16;21.58;;;12.65;;
59008;SDS011;44794;42.652;23.318;2023-05-10T08:08:42;19.27;;;12.30;;
59008;SDS011;44794;42.652;23.318;2023-05-10T08:11:08;21.60;;;13.10;;
59008;SDS011;44794;42.652;23.318;2023-05-10T08:13:33;15.77;;;11.23;;
59008;SDS011;44794;42.652;23.318;2023-05-10T08:15:59;20.35;;;12.32;;
59008;SDS011;44794;42.652;23.318;2023-05-10T08:18:24;18.75;;;12.20;;
59008;SDS011;44794;42.652;23.318;2023-05-10T08:20:53;19.80;;;11.38;;
59008;SDS011;44794;42.652;23.318;2023-05-10T08:23:18;19.80;;;12.25;;
59008;SDS011;44794;42.652;23.318;2023-05-10T08:25:44;16.65;;;11.63;;
59008;SDS011;44794;42.652;23.318;2023-05-10T08:28:09;15.75;;;11.23;;
59008;SDS011;44794;42.652;23.318;2023-05-10T08:30:35;18.63;;;12.63;;
59008;SDS011;44794;42.652;23.318;2023-05-10T08:33:00;18.52;;;12.93;;
59008;SDS011;44794;42.652;23.318;2023-05-10T08:35:26;17.25;;;12.15;;
59008;SDS011;44794;42.652;23.318;2023-05-10T08:37:52;19.30;;;11.82;;
59008;SDS011;44794;42.652;23.318;2023-05-10T08:40:19;17.27;;;12.55;;
59008;SDS011;44794;42.652;23.318;2023-05-10T08:42:47;21.48;;;13.65;;
59008;SDS011;44794;42.652;23.318;2023-05-10T08:45:19;17.95;;;12.57;;
59008;SDS011;44794;42.652;23.318;2023-05-10T08:47:49;19.73;;;12.23;;
59008;SDS011;44794;42.652;23.318;2023-05-10T08:50:17;17.25;;;12.90;;
59008;SDS011;44794;42.652;23.318;2023-05-10T08:52:46;14.83;;;10.27;;
59008;SDS011;44794;42.652;23.318;2023-05-10T08:55:13;17.35;;;12.98;;
59008;SDS011;44794;42.652;23.318;2023-05-10T08:57:40;19.35;;;11.40;;
59008;SDS011;44794;42.652;23.318;2023-05-10T09:00:05;21.00;;;13.60;;
59008;SDS011;44794;42.652;23.318;2023-05-10T09:02:33;19.95;;;13.02;;
59008;SDS011;44794;42.652;23.318;2023-05-10T09:05:00;17.45;;;12.70;;
59008;SDS011;44794;42.652;23.318;2023-05-10T09:07:26;21.98;;;14.90;;
59008;SDS011;44794;42.652;23.318;2023-05-10T09:09:52;20.02;;;14.70;;
59008;SDS011;44794;42.652;23.318;2023-05-10T09:12:18;18.10;;;13.90;;
59008;SDS011;44794;42.652;23.318;2023-05-10T09:14:44;16.38;;;12.38;;
59008;SDS011;44794;42.652;23.318;2023-05-10T09:17:10;19.52;;;13.95;;
59008;SDS011;44794;42.652;23.318;2023-05-10T09:19:36;20.73;;;14.98;;
59008;SDS011;44794;42.652;23.318;2023-05-10T09:22:02;23.58;;;16.17;;
59008;SDS011;44794;42.652;23.318;2023-05-10T09:24:29;22.20;;;15.90;;
59008;SDS011;44794;42.652;23.318;2023-05-10T09:26:55;21.70;;;15.48;;
59008;SDS011;44794;42.652;23.318;2023-05-10T09:29:22;20.58;;;15.07;;
59008;SDS011;44794;42.652;23.318;2023-05-10T09:31:48;19.67;;;13.05;;
59008;SDS011;44794;42.652;23.318;2023-05-10T09:34:29;20.55;;;13.70;;
59008;SDS011;44794;42.652;23.318;2023-05-10T09:36:58;20.60;;;14.70;;
59008;SDS011;44794;42.652;23.318;2023-05-10T09:39:32;21.52;;;13.68;;
59008;SDS011;44794;42.652;23.318;2023-05-10T09:42:00;21.50;;;14.50;;
59008;SDS011;44794;42.652;23.318;2023-05-10T09:44:28;18.52;;;13.05;;
59008;SDS011;44794;42.652;23.318;2023-05-10T09:46:55;18.30;;;13.52;;
59008;SDS011;44794;42.652;23.318;2023-05-10T09:49:21;17.10;;;13.27;;
59008;SDS011;44794;42.652;23.318;2023-05-10T09:51:47;17.83;;;13.50;;
59008;SDS011;44794;42.652;23.318;2023-05-10T09:54:22;18.35;;;13.30;;
59008;SDS011;44794;42.652;23.318;2023-05-10T09:56:48;17.52;;;12.73;;
59008;SDS011;44794;42.652;23.318;2023-05-10T09:59:14;13.75;;;11.88;;
59008;SDS011;44794;42.652;23.318;2023-05-10T10:01:40;17.45;;;13.80;;
59008;SDS011;44794;42.652;23.318;2023-05-10T10:04:06;16.85;;;11.90;;
59008;SDS011;44794;42.652;23.318;2023-05-10T10:06:37;18.13;;;13.88;;
59008;SDS011;44794;42.652;23.318;2023-05-10T10:09:03;17.67;;;13.55;;
59008;SDS011;44794;42.652;23.318;2023-05-10T10:11:30;18.35;;;12.63;;
59008;SDS011;44794;42.652;23.318;2023-05-10T10:13:56;21.88;;;13.98;;
59008;SDS011;44794;42.652;23.318;2023-05-10T10:16:21;15.23;;;10.98;;
59008;SDS011;44794;42.652;23.318;2023-05-10T10:18:47;15.88;;;11.43;;
59008;SDS011;44794;42.652;23.318;2023-05-10T10:21:13;16.17;;;11.45;;
59008;SDS011;44794;42.652;23.318;2023-05-10T10:23:40;18.02;;;12.70;;
59008;SDS011;44794;42.652;23.318;2023-05-10T10:26:05;16.80;;;12.73;;
59008;SDS011;44794;42.652;23.318;2023-05-10T10:31:32;17.90;;;12.00;;
59008;SDS011;44794;42.652;23.318;2023-05-10T10:34:08;15.20;;;11.90;;
59008;SDS011;44794;42.652;23.318;2023-05-10T10:36:45;14.63;;;11.23;;
59008;SDS011;44794;42.652;23.318;2023-05-10T10:39:12;14.75;;;10.27;;
59008;SDS011;44794;42.652;23.318;2023-05-10T10:41:39;15.57;;;10.38;;
59008;SDS011;44794;42.652;23.318;2023-05-10T10:47:03;12.40;;;9.82;;
59008;SDS011;44794;42.652;23.318;2023-05-10T10:57:55;15.48;;;11.10;;
59008;SDS011;44794;42.652;23.318;2023-05-10T11:05:44;11.82;;;10.18;;
59008;SDS011;44794;42.652;23.318;2023-05-10T11:15:54;11.60;;;9.80;;
59008;SDS011;44794;42.652;23.318;2023-05-10T11:20:52;11.80;;;10.00;;
59008;SDS011;44794;42.652;23.318;2023-05-10T11:23:21;13.43;;;9.35;;
59008;SDS011;44794;42.652;23.318;2023-05-10T11:25:47;10.75;;;9.20;;
59008;SDS011;44794;42.652;23.318;2023-05-10T11:28:14;12.02;;;9.93;;
59008;SDS011;44794;42.652;23.318;2023-05-10T11:30:42;15.40;;;10.43;;
59008;SDS011;44794;42.652;23.318;2023-05-10T11:33:09;14.18;;;10.55;;
59008;SDS011;44794;42.652;23.318;2023-05-10T11:35:40;10.93;;;9.18;;
59008;SDS011;44794;42.652;23.318;2023-05-10T11:38:06;12.98;;;10.07;;
59008;SDS011;44794;42.652;23.318;2023-05-10T11:40:32;15.02;;;8.40;;
59008;SDS011;44794;42.652;23.318;2023-05-10T11:42:58;12.45;;;8.43;;
59008;SDS011;44794;42.652;23.318;2023-05-10T11:45:24;12.85;;;8.90;;
59008;SDS011;44794;42.652;23.318;2023-05-10T11:47:50;13.88;;;9.18;;
59008;SDS011;44794;42.652;23.318;2023-05-10T11:50:16;15.20;;;9.70;;
59008;SDS011;44794;42.652;23.318;2023-05-10T11:52:42;13.48;;;10.52;;
59008;SDS011;44794;42.652;23.318;2023-05-10T11:55:08;15.00;;;9.88;;
59008;SDS011;44794;42.652;23.318;2023-05-10T11:57:35;13.70;;;10.18;;
59008;SDS011;44794;42.652;23.318;2023-05-10T12:00:00;13.95;;;9.63;;
59008;SDS011;44794;42.652;23.318;2023-05-10T12:02:28;16.85;;;10.88;;
59008;SDS011;44794;42.652;23.318;2023-05-10T12:04:54;19.30;;;10.90;;
59008;SDS011;44794;42.652;23.318;2023-05-10T12:07:20;13.02;;;9.82;;
59008;SDS011;44794;42.652;23.318;2023-05-10T12:15:19;15.35;;;11.35;;
59008;SDS011;44794;42.652;23.318;2023-05-10T12:17:49;18.55;;;11.50;;
59008;SDS011;44794;42.652;23.318;2023-05-10T12:22:55;18.20;;;12.07;;
59008;SDS011;44794;42.652;23.318;2023-05-10T12:25:23;21.33;;;11.25;;
59008;SDS011;44794;42.652;23.318;2023-05-10T12:27:55;18.65;;;10.50;;
59008;SDS011;44794;42.652;23.318;2023-05-10T12:30:25;15.18;;;11.52;;
59008;SDS011;44794;42.652;23.318;2023-05-10T12:32:52;16.98;;;11.77;;
59008;SDS011;44794;42.652;23.318;2023-05-10T12:35:19;15.32;;;9.48;;
59008;SDS011;44794;42.652;23.318;2023-05-10T12:37:47;17.48;;;11.52;;
59008;SDS011;44794;42.652;23.318;2023-05-10T12:40:13;18.33;;;12.18;;
59008;SDS011;44794;42.652;23.318;2023-05-10T12:42:39;18.15;;;12.30;;
59008;SDS011;44794;42.652;23.318;2023-05-10T12:45:05;15.23;;;11.38;;
59008;SDS011;44794;42.652;23.318;2023-05-10T12:47:32;16.23;;;11.82;;
59008;SDS011;44794;42.652;23.318;2023-05-10T12:49:59;18.10;;;10.98;;
59008;SDS011;44794;42.652;23.318;2023-05-10T12:52:25;15.98;;;12.15;;
59008;SDS011;44794;42.652;23.318;2023-05-10T12:54:51;18.05;;;11.95;;
59008;SDS011;44794;42.652;23.318;2023-05-10T12:57:17;15.38;;;11.75;;
59008;SDS011;44794;42.652;23.318;2023-05-10T12:59:43;17.25;;;11.30;;
59008;SDS011;44794;42.652;23.318;2023-05-10T13:02:09;16.60;;;11.75;;
59008;SDS011;44794;42.652;23.318;2023-05-10T13:04:35;18.25;;;11.93;;
59008;SDS011;44794;42.652;23.318;2023-05-10T13:07:02;15.45;;;11.77;;
59008;SDS011;44794;42.652;23.318;2023-05-10T13:09:27;19.40;;;11.10;;
59008;SDS011;44794;42.652;23.318;2023-05-10T13:11:56;20.17;;;12.25;;
59008;SDS011;44794;42.652;23.318;2023-05-10T13:14:21;14.48;;;11.10;;
59008;SDS011;44794;42.652;23.318;2023-05-10T13:16:47;18.02;;;11.68;;
59008;SDS011;44794;42.652;23.318;2023-05-10T13:19:13;16.45;;;11.70;;
59008;SDS011;44794;42.652;23.318;2023-05-10T13:21:39;15.73;;;10.52;;
59008;SDS011;44794;42.652;23.318;2023-05-10T13:24:06;16.73;;;11.48;;
59008;SDS011;44794;42.652;23.318;2023-05-10T13:26:32;16.52;;;11.77;;
59008;SDS011;44794;42.652;23.318;2023-05-10T13:28:57;17.33;;;11.75;;
59008;SDS011;44794;42.652;23.318;2023-05-10T13:31:23;19.17;;;12.00;;
59008;SDS011;44794;42.652;23.318;2023-05-10T13:33:48;21.60;;;12.05;;
59008;SDS011;44794;42.652;23.318;2023-05-10T13:36:14;16.85;;;11.23;;
59008;SDS011;44794;42.652;23.318;2023-05-10T13:38:39;16.23;;;11.85;;
59008;SDS011;44794;42.652;23.318;2023-05-10T13:41:05;14.75;;;11.80;;
59008;SDS011;44794;42.652;23.318;2023-05-10T13:43:30;18.75;;;11.77;;
59008;SDS011;44794;42.652;23.318;2023-05-10T13:45:56;18.70;;;11.68;;
59008;SDS011;44794;42.652;23.318;2023-05-10T13:48:21;16.90;;;11.23;;
59008;SDS011;44794;42.652;23.318;2023-05-10T13:50:47;17.17;;;12.25;;
59008;SDS011;44794;42.652;23.318;2023-05-10T13:53:12;19.45;;;11.77;;
59008;SDS011;44794;42.652;23.318;2023-05-10T13:55:38;19.02;;;11.57;;
59008;SDS011;44794;42.652;23.318;2023-05-10T13:58:03;16.85;;;11.35;;
59008;SDS011;44794;42.652;23.318;2023-05-10T14:00:29;16.52;;;11.43;;
59008;SDS011;44794;42.652;23.318;2023-05-10T14:02:54;14.00;;;10.55;;
59008;SDS011;44794;42.652;23.318;2023-05-10T14:05:20;16.77;;;10.90;;
59008;SDS011;44794;42.652;23.318;2023-05-10T14:07:45;18.65;;;10.10;;
59008;SDS011;44794;42.652;23.318;2023-05-10T14:10:11;15.57;;;11.85;;
59008;SDS011;44794;42.652;23.318;2023-05-10T14:12:36;18.10;;;11.73;;
59008;SDS011;44794;42.652;23.318;2023-05-10T14:15:02;16.05;;;11.15;;
59008;SDS011;44794;42.652;23.318;2023-05-10T14:17:30;16.60;;;10.98;;
59008;SDS011;44794;42.652;23.318;2023-05-10T14:19:56;15.75;;;10.88;;
59008;SDS011;44794;42.652;23.318;2023-05-10T14:22:21;19.38;;;11.35;;
59008;SDS011;44794;42.652;23.318;2023-05-10T14:24:47;16.90;;;10.70;;
59008;SDS011;44794;42.652;23.318;2023-05-10T14:27:13;19.35;;;11.80;;
59008;SDS011;44794;42.652;23.318;2023-05-10T14:29:39;15.45;;;11.77;;
59008;SDS011;44794;42.652;23.318;2023-05-10T14:32:04;17.17;;;11.95;;
59008;SDS011;44794;42.652;23.318;2023-05-10T14:34:30;15.75;;;11.20;;
59008;SDS011;44794;42.652;23.318;2023-05-10T14:36:55;16.13;;;11.95;;
59008;SDS011;44794;42.652;23.318;2023-05-10T14:39:21;17.13;;;11.57;;
59008;SDS011;44794;42.652;23.318;2023-05-10T14:41:47;19.25;;;12.25;;
59008;SDS011;44794;42.652;23.318;2023-05-10T14:44:13;17.92;;;11.35;;
59008;SDS011;44794;42.652;23.318;2023-05-10T14:46:40;17.15;;;12.00;;
59008;SDS011;44794;42.652;23.318;2023-05-10T14:49:06;18.00;;;11.43;;
59008;SDS011;44794;42.652;23.318;2023-05-10T14:51:32;16.48;;;11.68;;
59008;SDS011;44794;42.652;23.318;2023-05-10T14:53:57;16.17;;;11.48;;
59008;SDS011;44794;42.652;23.318;2023-05-10T14:56:23;14.48;;;11.25;;
59008;SDS011;44794;42.652;23.318;2023-05-10T14:58:49;16.23;;;11.32;;
59008;SDS011;44794;42.652;23.318;2023-05-10T15:01:15;18.27;;;11.40;;
59008;SDS011;44794;42.652;23.318;2023-05-10T15:03:40;16.38;;;11.38;;
59008;SDS011;44794;42.652;23.318;2023-05-10T15:06:07;15.73;;;11.52;;
59008;SDS011;44794;42.652;23.318;2023-05-10T15:08:33;16.48;;;11.45;;
59008;SDS011;44794;42.652;23.318;2023-05-10T15:10:59;14.32;;;10.73;;